RUK879F EGHH-EGPH
Flight info
| Callsign | RUK879F |
|---|---|
| Flight time | 1h 0m |
| Altitude | 32000 |
| Route | SAM Q41 SILVA M605 DTY UY53 SAPCO UN57 POL UN601 RIBEL DCT INPIP |
| Aircraft | B738/M-SDE2E3FGHIRWXY/LB1 |
Departure
| Time | 2026-05-01 12:52 |
|---|---|
| Airport | Bournemouth Airport (EGHH) |
Arrival
| Time | 2026-05-01 13:52 |
|---|---|
| Airport | Edinburgh Airport (EGPH) |
| Time | Latitude | Longitude | Altitude | Speed | Heading |
|---|---|---|---|---|---|
| 2026-05-01 12:22 | 50.77768 | -1.83377 | 45 ft | 0 kts | 86° |
| 2026-05-01 12:41 | 50.77766 | -1.83408 | 45 ft | 4 kts | 79° |
| 2026-05-01 12:42 | 50.77758 | -1.83447 | 44 ft | 4 kts | 51° |
| 2026-05-01 12:42 | 50.77741 | -1.83464 | 43 ft | 2 kts | 356° |
| 2026-05-01 12:42 | 50.77740 | -1.83464 | 43 ft | 0 kts | 356° |
| 2026-05-01 12:49 | 50.77756 | -1.83466 | 42 ft | 6 kts | 356° |
| 2026-05-01 12:49 | 50.77830 | -1.83473 | 45 ft | 14 kts | 356° |
| 2026-05-01 12:49 | 50.77929 | -1.83492 | 45 ft | 14 kts | 356° |
| 2026-05-01 12:49 | 50.78005 | -1.83418 | 45 ft | 13 kts | 60° |
| 2026-05-01 12:50 | 50.78046 | -1.83288 | 46 ft | 13 kts | 64° |
| 2026-05-01 12:50 | 50.78092 | -1.83168 | 45 ft | 13 kts | 56° |
| 2026-05-01 12:50 | 50.78125 | -1.83045 | 45 ft | 12 kts | 90° |
| 2026-05-01 12:50 | 50.78122 | -1.82911 | 45 ft | 13 kts | 81° |
| 2026-05-01 12:51 | 50.78153 | -1.82795 | 43 ft | 10 kts | 50° |
| 2026-05-01 12:51 | 50.78208 | -1.82730 | 45 ft | 10 kts | 27° |
| 2026-05-01 12:51 | 50.78239 | -1.82873 | 45 ft | 36 kts | 255° |
| 2026-05-01 12:52 | 50.78101 | -1.83699 | 44 ft | 117 kts | 255° |
| 2026-05-01 12:52 | 50.77606 | -1.87017 | 1238 ft | 166 kts | 255° |
| 2026-05-01 12:52 | 50.77382 | -1.88781 | 2207 ft | 172 kts | 255° |
| 2026-05-01 12:53 | 50.76832 | -1.93052 | 2913 ft | 221 kts | 255° |
| 2026-05-01 12:53 | 50.76491 | -1.95576 | 2972 ft | 245 kts | 255° |
| 2026-05-01 12:53 | 50.76120 | -1.98253 | 2965 ft | 253 kts | 255° |
| 2026-05-01 12:54 | 50.75743 | -2.00954 | 2982 ft | 252 kts | 255° |
| 2026-05-01 12:54 | 50.74990 | -2.06365 | 2980 ft | 253 kts | 255° |
| 2026-05-01 12:54 | 50.74613 | -2.09076 | 2995 ft | 253 kts | 255° |
| 2026-05-01 12:55 | 50.75323 | -2.14392 | 3356 ft | 269 kts | 311° |
| 2026-05-01 12:55 | 50.76890 | -2.16022 | 4269 ft | 276 kts | 339° |
| 2026-05-01 12:55 | 50.78805 | -2.16387 | 5107 ft | 283 kts | 7° |
| 2026-05-01 12:56 | 50.80651 | -2.15360 | 5962 ft | 285 kts | 35° |
| 2026-05-01 12:56 | 50.82136 | -2.13287 | 6780 ft | 286 kts | 48° |
| 2026-05-01 12:56 | 50.83503 | -2.10970 | 7581 ft | 291 kts | 50° |
| 2026-05-01 12:56 | 50.84879 | -2.08587 | 8378 ft | 295 kts | 50° |
| 2026-05-01 12:57 | 50.86271 | -2.06173 | 9208 ft | 299 kts | 50° |
| 2026-05-01 12:57 | 50.89128 | -2.01227 | 10157 ft | 308 kts | 50° |
| 2026-05-01 12:57 | 50.90584 | -1.98711 | 10149 ft | 310 kts | 50° |
| 2026-05-01 12:58 | 50.92024 | -1.96192 | 10149 ft | 307 kts | 55° |
| 2026-05-01 12:58 | 50.92897 | -1.93224 | 10152 ft | 293 kts | 87° |
| 2026-05-01 12:58 | 50.92954 | -1.90039 | 10173 ft | 291 kts | 95° |
| 2026-05-01 12:59 | 50.92979 | -1.83176 | 10500 ft | 337 kts | 90° |
| 2026-05-01 12:59 | 50.93163 | -1.79364 | 10820 ft | 355 kts | 89° |
| 2026-05-01 12:59 | 50.93628 | -1.71440 | 12220 ft | 364 kts | 89° |
| 2026-05-01 13:00 | 50.94075 | -1.63359 | 13677 ft | 372 kts | 89° |
| 2026-05-01 13:00 | 50.94289 | -1.59249 | 14354 ft | 376 kts | 89° |
| 2026-05-01 13:01 | 50.94712 | -1.50935 | 15718 ft | 381 kts | 89° |
| 2026-05-01 13:01 | 50.94920 | -1.46781 | 16352 ft | 384 kts | 89° |
| 2026-05-01 13:01 | 50.95921 | -1.38387 | 17570 ft | 403 kts | 65° |
| 2026-05-01 13:02 | 50.97668 | -1.34869 | 18193 ft | 414 kts | 43° |
| 2026-05-01 13:07 | 51.60998 | -1.06762 | 27602 ft | 476 kts | 15° |
| 2026-05-01 13:07 | 51.64236 | -1.05605 | 27939 ft | 478 kts | 11° |
| 2026-05-01 13:07 | 51.67533 | -1.04753 | 28277 ft | 480 kts | 8° |
| 2026-05-01 13:08 | 51.70851 | -1.04002 | 28615 ft | 482 kts | 8° |
| 2026-05-01 13:08 | 51.74179 | -1.03235 | 28942 ft | 484 kts | 9° |
| 2026-05-01 13:08 | 51.77504 | -1.02411 | 29336 ft | 484 kts | 9° |
| 2026-05-01 13:08 | 51.80827 | -1.01549 | 29866 ft | 481 kts | 9° |
| 2026-05-01 13:09 | 51.84146 | -1.00986 | 30304 ft | 480 kts | 1° |
| 2026-05-01 13:09 | 51.87438 | -1.01216 | 30619 ft | 479 kts | 351° |
| 2026-05-01 13:09 | 51.90749 | -1.02256 | 30966 ft | 478 kts | 346° |
| 2026-05-01 13:09 | 51.93983 | -1.03459 | 31344 ft | 476 kts | 346° |
| 2026-05-01 13:10 | 51.97214 | -1.04612 | 31706 ft | 476 kts | 347° |
| 2026-05-01 13:10 | 52.00456 | -1.05705 | 32042 ft | 475 kts | 347° |
| 2026-05-01 13:10 | 52.03666 | -1.06748 | 32140 ft | 479 kts | 347° |
| 2026-05-01 13:11 | 52.10268 | -1.08807 | 32139 ft | 479 kts | 352° |
| 2026-05-01 13:11 | 52.13540 | -1.08809 | 32164 ft | 475 kts | 6° |
| 2026-05-01 13:11 | 52.16859 | -1.08064 | 32152 ft | 476 kts | 9° |
| 2026-05-01 13:12 | 52.23387 | -1.06186 | 32154 ft | 477 kts | 10° |
| 2026-05-01 13:12 | 52.29874 | -1.04225 | 32150 ft | 478 kts | 10° |
| 2026-05-01 13:13 | 52.36412 | -1.02208 | 32145 ft | 479 kts | 10° |
| 2026-05-01 13:13 | 52.42965 | -1.00167 | 32143 ft | 479 kts | 10° |
| 2026-05-01 13:14 | 52.49569 | -0.98878 | 32137 ft | 478 kts | 352° |
| 2026-05-01 13:14 | 52.56009 | -1.01360 | 32164 ft | 477 kts | 341° |
| 2026-05-01 13:15 | 52.62350 | -1.04568 | 32160 ft | 477 kts | 341° |
| 2026-05-01 13:15 | 52.68670 | -1.07839 | 32160 ft | 476 kts | 340° |
| 2026-05-01 13:16 | 52.74991 | -1.11136 | 32150 ft | 476 kts | 340° |
| 2026-05-01 13:16 | 52.81295 | -1.14438 | 32151 ft | 475 kts | 340° |
| 2026-05-01 13:17 | 52.93874 | -1.21055 | 32155 ft | 473 kts | 340° |
| 2026-05-01 13:18 | 52.99759 | -1.25724 | 32160 ft | 468 kts | 326° |
| 2026-05-01 13:18 | 53.02533 | -1.28559 | 32150 ft | 468 kts | 325° |
| 2026-05-01 13:18 | 53.08061 | -1.34288 | 32145 ft | 469 kts | 326° |
| 2026-05-01 13:19 | 53.13653 | -1.39940 | 32138 ft | 470 kts | 326° |
| 2026-05-01 13:20 | 53.22096 | -1.48318 | 32129 ft | 471 kts | 327° |
| 2026-05-01 13:20 | 53.27730 | -1.53909 | 32151 ft | 472 kts | 327° |
| 2026-05-01 13:21 | 53.36192 | -1.62349 | 32133 ft | 472 kts | 327° |
| 2026-05-01 13:21 | 53.41815 | -1.67982 | 32128 ft | 471 kts | 327° |
| 2026-05-01 13:22 | 53.47425 | -1.73621 | 32128 ft | 469 kts | 327° |
| 2026-05-01 13:22 | 53.53013 | -1.79256 | 32135 ft | 468 kts | 327° |
| 2026-05-01 13:23 | 53.58587 | -1.84893 | 32137 ft | 467 kts | 327° |
| 2026-05-01 13:23 | 53.64145 | -1.90532 | 32135 ft | 466 kts | 327° |
| 2026-05-01 13:24 | 53.69708 | -1.96194 | 32129 ft | 466 kts | 327° |
| 2026-05-01 13:25 | 53.77995 | -2.04661 | 32128 ft | 467 kts | 327° |
| 2026-05-01 13:25 | 53.83550 | -2.10359 | 32144 ft | 468 kts | 327° |
| 2026-05-01 13:26 | 53.89112 | -2.16082 | 32138 ft | 468 kts | 327° |
| 2026-05-01 13:26 | 53.94688 | -2.21837 | 32134 ft | 469 kts | 327° |
| 2026-05-01 13:27 | 54.00259 | -2.27604 | 32125 ft | 469 kts | 327° |
| 2026-05-01 13:27 | 54.09201 | -2.34511 | 32130 ft | 472 kts | 337° |
| 2026-05-01 13:28 | 54.18376 | -2.40621 | 32130 ft | 472 kts | 336° |
| 2026-05-01 13:29 | 54.30562 | -2.49064 | 32128 ft | 472 kts | 336° |
| 2026-05-01 13:30 | 54.42634 | -2.57531 | 31126 ft | 462 kts | 336° |
| 2026-05-01 13:31 | 54.48548 | -2.61694 | 30401 ft | 457 kts | 336° |
| 2026-05-01 13:31 | 54.57302 | -2.67883 | 29182 ft | 451 kts | 336° |
| 2026-05-01 13:32 | 54.63072 | -2.71981 | 27953 ft | 456 kts | 335° |
| 2026-05-01 13:33 | 54.70943 | -2.77597 | 25914 ft | 453 kts | 335° |
| 2026-05-01 13:33 | 54.76696 | -2.81713 | 24471 ft | 442 kts | 335° |
| 2026-05-01 13:34 | 54.82314 | -2.85747 | 22968 ft | 432 kts | 335° |
| 2026-05-01 13:34 | 54.87818 | -2.89713 | 21399 ft | 424 kts | 335° |
| 2026-05-01 13:35 | 54.93170 | -2.93580 | 19930 ft | 416 kts | 335° |
| 2026-05-01 13:35 | 54.95822 | -2.95501 | 19200 ft | 411 kts | 335° |
| 2026-05-01 13:35 | 55.01046 | -2.99291 | 17710 ft | 402 kts | 335° |
| 2026-05-01 13:36 | 55.03614 | -3.01159 | 16921 ft | 398 kts | 335° |
| 2026-05-01 13:36 | 55.06141 | -3.02999 | 16473 ft | 386 kts | 335° |
| 2026-05-01 13:36 | 55.11022 | -3.06560 | 16204 ft | 378 kts | 335° |
| 2026-05-01 13:37 | 55.13442 | -3.08331 | 16146 ft | 377 kts | 335° |
| 2026-05-01 13:37 | 55.15863 | -3.10105 | 16124 ft | 377 kts | 335° |
| 2026-05-01 13:37 | 55.18279 | -3.11877 | 16121 ft | 377 kts | 334° |
| 2026-05-01 13:37 | 55.20699 | -3.13655 | 16126 ft | 377 kts | 335° |
| 2026-05-01 13:38 | 55.25577 | -3.17244 | 16117 ft | 382 kts | 335° |
| 2026-05-01 13:38 | 55.27993 | -3.19021 | 15919 ft | 372 kts | 335° |
| 2026-05-01 13:38 | 55.30452 | -3.20278 | 15330 ft | 370 kts | 354° |
| 2026-05-01 13:39 | 55.33033 | -3.20130 | 14606 ft | 371 kts | 4° |
| 2026-05-01 13:39 | 55.35599 | -3.19705 | 13949 ft | 370 kts | 5° |
| 2026-05-01 13:39 | 55.38153 | -3.19251 | 13276 ft | 367 kts | 5° |
| 2026-05-01 13:39 | 55.40676 | -3.18809 | 12761 ft | 360 kts | 5° |
| 2026-05-01 13:40 | 55.43108 | -3.18399 | 12637 ft | 341 kts | 5° |
| 2026-05-01 13:40 | 55.45417 | -3.18040 | 12445 ft | 328 kts | 4° |
| 2026-05-01 13:40 | 55.47671 | -3.17698 | 12015 ft | 324 kts | 4° |
| 2026-05-01 13:40 | 55.49911 | -3.17364 | 11494 ft | 324 kts | 4° |
| 2026-05-01 13:41 | 55.52158 | -3.17028 | 10982 ft | 324 kts | 4° |
| 2026-05-01 13:41 | 55.54394 | -3.16693 | 10560 ft | 321 kts | 4° |
| 2026-05-01 13:41 | 55.56612 | -3.16359 | 10093 ft | 319 kts | 4° |
| 2026-05-01 13:41 | 55.58819 | -3.16031 | 9609 ft | 319 kts | 4° |
| 2026-05-01 13:42 | 55.61021 | -3.15703 | 9277 ft | 315 kts | 4° |
| 2026-05-01 13:42 | 55.63182 | -3.15379 | 9131 ft | 308 kts | 4° |
| 2026-05-01 13:42 | 55.65278 | -3.15043 | 9022 ft | 297 kts | 6° |
| 2026-05-01 13:42 | 55.67288 | -3.14518 | 8815 ft | 288 kts | 9° |
| 2026-05-01 13:43 | 55.69258 | -3.13935 | 8454 ft | 286 kts | 9° |
| 2026-05-01 13:43 | 55.71206 | -3.13344 | 8067 ft | 284 kts | 9° |
| 2026-05-01 13:43 | 55.73145 | -3.12741 | 7662 ft | 283 kts | 9° |
| 2026-05-01 13:43 | 55.75051 | -3.12140 | 7306 ft | 280 kts | 9° |
| 2026-05-01 13:44 | 55.76956 | -3.11526 | 6975 ft | 277 kts | 9° |
| 2026-05-01 13:44 | 55.78839 | -3.10901 | 6616 ft | 274 kts | 9° |
| 2026-05-01 13:44 | 55.80705 | -3.10268 | 6239 ft | 272 kts | 9° |
| 2026-05-01 13:44 | 55.82555 | -3.09635 | 5902 ft | 268 kts | 9° |
| 2026-05-01 13:45 | 55.84338 | -3.09023 | 5818 ft | 254 kts | 9° |
| 2026-05-01 13:45 | 55.86048 | -3.08431 | 5578 ft | 248 kts | 9° |
| 2026-05-01 13:45 | 55.87734 | -3.07848 | 5242 ft | 246 kts | 9° |
| 2026-05-01 13:45 | 55.89413 | -3.07270 | 4906 ft | 245 kts | 9° |
| 2026-05-01 13:46 | 55.91079 | -3.06699 | 4586 ft | 243 kts | 9° |
| 2026-05-01 13:46 | 55.92735 | -3.06141 | 4279 ft | 241 kts | 9° |
| 2026-05-01 13:46 | 55.94374 | -3.05596 | 3958 ft | 239 kts | 9° |
| 2026-05-01 13:46 | 55.96001 | -3.05061 | 3653 ft | 237 kts | 9° |
| 2026-05-01 13:47 | 55.97619 | -3.04533 | 3314 ft | 236 kts | 9° |
| 2026-05-01 13:47 | 55.99230 | -3.04350 | 3020 ft | 231 kts | 345° |
| 2026-05-01 13:47 | 56.00672 | -3.05492 | 3017 ft | 228 kts | 326° |
| 2026-05-01 13:47 | 56.02026 | -3.06992 | 2996 ft | 229 kts | 324° |
| 2026-05-01 13:48 | 56.03317 | -3.08640 | 2972 ft | 226 kts | 309° |
| 2026-05-01 13:48 | 56.03929 | -3.11066 | 2989 ft | 210 kts | 266° |
| 2026-05-01 13:48 | 56.03498 | -3.13347 | 2974 ft | 187 kts | 227° |
| 2026-05-01 13:48 | 56.02654 | -3.15050 | 2789 ft | 182 kts | 231° |
| 2026-05-01 13:49 | 56.01951 | -3.16896 | 2559 ft | 178 kts | 234° |
| 2026-05-01 13:49 | 56.01286 | -3.18746 | 2343 ft | 176 kts | 236° |
| 2026-05-01 13:49 | 56.00643 | -3.20607 | 2104 ft | 176 kts | 237° |
| 2026-05-01 13:49 | 56.00014 | -3.22457 | 1863 ft | 170 kts | 237° |
| 2026-05-01 13:50 | 55.99418 | -3.24211 | 1623 ft | 160 kts | 238° |
| 2026-05-01 13:50 | 55.98846 | -3.25897 | 1412 ft | 158 kts | 238° |
| 2026-05-01 13:50 | 55.98281 | -3.27560 | 1253 ft | 153 kts | 238° |
| 2026-05-01 13:50 | 55.97735 | -3.29171 | 1017 ft | 149 kts | 238° |
| 2026-05-01 13:51 | 55.97199 | -3.30753 | 786 ft | 147 kts | 239° |
| 2026-05-01 13:51 | 55.96684 | -3.32272 | 586 ft | 140 kts | 239° |
| 2026-05-01 13:51 | 55.96181 | -3.33734 | 406 ft | 137 kts | 239° |
| 2026-05-01 13:51 | 55.95690 | -3.35209 | 239 ft | 138 kts | 238° |
| 2026-05-01 13:52 | 55.95193 | -3.36677 | 114 ft | 133 kts | 238° |
| 2026-05-01 13:52 | 55.94789 | -3.37874 | 113 ft | 84 kts | 238° |
| 2026-05-01 13:52 | 55.94553 | -3.38568 | 112 ft | 45 kts | 239° |
| 2026-05-01 13:52 | 55.94433 | -3.38917 | 113 ft | 25 kts | 236° |
| 2026-05-01 13:53 | 55.94315 | -3.38897 | 112 ft | 18 kts | 149° |
| 2026-05-01 13:53 | 55.94363 | -3.38554 | 113 ft | 16 kts | 58° |
| 2026-05-01 13:53 | 55.94419 | -3.38390 | 114 ft | 15 kts | 58° |
| 2026-05-01 13:54 | 55.94472 | -3.38233 | 113 ft | 14 kts | 59° |
| 2026-05-01 13:54 | 55.94523 | -3.38085 | 113 ft | 14 kts | 59° |
| 2026-05-01 13:54 | 55.94572 | -3.37939 | 113 ft | 13 kts | 59° |
| 2026-05-01 13:54 | 55.94624 | -3.37785 | 113 ft | 16 kts | 59° |
| 2026-05-01 13:55 | 55.94686 | -3.37603 | 114 ft | 18 kts | 58° |
| 2026-05-01 13:55 | 55.94757 | -3.37393 | 112 ft | 21 kts | 59° |
| 2026-05-01 13:55 | 55.94836 | -3.37159 | 113 ft | 23 kts | 59° |
| 2026-05-01 13:55 | 55.94915 | -3.36929 | 113 ft | 16 kts | 58° |
| 2026-05-01 13:56 | 55.94896 | -3.36804 | 113 ft | 12 kts | 147° |
| 2026-05-01 13:56 | 55.94816 | -3.36778 | 115 ft | 12 kts | 179° |
| 2026-05-01 13:56 | 55.94754 | -3.36745 | 114 ft | 0 kts | 159° |
| 2026-05-01 13:57 | 55.94746 | -3.36741 | 113 ft | 3 kts | 166° |
| 2026-05-01 13:57 | 55.94722 | -3.36738 | 114 ft | 7 kts | 178° |
| 2026-05-01 13:57 | 55.94631 | -3.36734 | 115 ft | 6 kts | 179° |
| 2026-05-01 13:57 | 55.94613 | -3.36698 | 114 ft | 4 kts | 105° |
| 2026-05-01 13:58 | 55.94612 | -3.36648 | 115 ft | 4 kts | 89° |
| 2026-05-01 13:58 | 55.94612 | -3.36634 | 115 ft | 0 kts | 89° |